Time;durP1;ratioP1;P1;durP2;ratioP2;P2;SDS_P1;SDS_P2;PMS_P1;PMS_P2;Temp;Humidity;BMP_temperature;BMP_pressure;BME280_temperature;BME280_humidity;BME280_pressure;Samples;Min_cycle;Max_cycle;Signal;HPM_P1;HPM_P2
2023/07/13 00:01:04;;;;;;;;;0.00;0.00;;;;;26.13;34.59;101242.94;4940884;28;46267;-37
2023/07/13 00:03:34;;;;;;;;;1.00;1.00;;;;;26.12;34.25;101240.41;4940840;28;45447;-38
2023/07/13 00:06:00;;;;;;;;;2.75;1.25;;;;;26.12;34.90;101241.25;4940936;28;45379;-39
2023/07/13 00:08:26;;;;;;;;;1.50;1.00;;;;;26.10;34.74;101240.50;4941182;28;45433;-38
2023/07/13 00:10:54;;;;;;;;;1.00;1.00;;;;;26.11;34.76;101241.38;4940431;28;45608;-42
2023/07/13 00:13:19;;;;;;;;;2.00;1.00;;;;;26.11;34.76;101241.38;4939476;28;45646;-41
2023/07/13 00:15:45;;;;;;;;;1.25;0.75;;;;;26.09;33.96;101241.41;4941094;28;45227;-44
2023/07/13 00:18:10;;;;;;;;;2.25;1.50;;;;;26.10;34.12;101247.63;4941002;28;45230;-42
2023/07/13 00:20:35;;;;;;;;;1.00;1.00;;;;;26.07;34.06;101238.06;4940310;28;54524;-42
2023/07/13 00:23:00;;;;;;;;;1.50;1.00;;;;;26.07;34.70;101244.19;4940562;28;45377;-44
2023/07/13 00:25:27;;;;;;;;;1.00;1.00;;;;;26.06;34.59;101244.31;4940390;28;49438;-37
2023/07/13 00:27:53;;;;;;;;;0.50;0.50;;;;;26.05;33.94;101242.63;4940888;28;45262;-37
2023/07/13 00:30:19;;;;;;;;;1.00;1.00;;;;;26.03;34.51;101242.72;4940443;28;45285;-45
2023/07/13 00:32:44;;;;;;;;;1.00;1.00;;;;;26.04;34.03;101249.72;4940851;28;45309;-44
2023/07/13 00:35:10;;;;;;;;;2.00;2.00;;;;;26.05;34.53;101247.94;4940605;28;45670;-41
2023/07/13 00:37:36;;;;;;;;;1.50;1.50;;;;;26.04;34.29;101251.56;4940522;28;45578;-40
2023/07/13 00:40:05;;;;;;;;;1.75;1.00;;;;;26.03;34.75;101247.19;4955084;28;46323;-43
2023/07/13 00:42:32;;;;;;;;;1.00;1.00;;;;;26.02;34.71;101248.16;4940177;28;45234;-40
2023/07/13 00:45:07;;;;;;;;;1.00;1.00;;;;;26.00;34.24;101247.41;4940487;28;45218;-37
2023/07/13 00:47:32;;;;;;;;;1.00;1.00;;;;;25.99;34.55;101256.34;4940573;28;45627;-42
2023/07/13 00:49:58;;;;;;;;;1.75;1.75;;;;;25.99;34.30;101256.34;4954956;28;47155;-44
2023/07/13 00:52:24;;;;;;;;;1.00;1.00;;;;;25.98;34.48;101259.94;4940116;28;45547;-43
2023/07/13 00:54:49;;;;;;;;;2.50;1.50;;;;;25.97;34.18;101258.25;4955100;28;45290;-41
2023/07/13 00:57:18;;;;;;;;;1.25;1.25;;;;;25.94;34.55;101259.31;4940490;28;45388;-47
2023/07/13 00:59:48;;;;;;;;;1.00;1.00;;;;;25.93;34.70;101258.50;4940436;28;45281;-43
2023/07/13 01:02:13;;;;;;;;;1.00;1.00;;;;;25.95;34.31;101255.72;4940102;28;45388;-43
2023/07/13 01:04:39;;;;;;;;;2.00;2.00;;;;;25.95;34.95;101265.50;4939490;28;45316;-43
2023/07/13 01:07:06;;;;;;;;;1.00;1.00;;;;;25.93;35.04;101266.47;4940070;28;45431;-43
2023/07/13 01:09:31;;;;;;;;;1.00;1.00;;;;;25.93;35.07;101266.47;4939766;28;46171;-42
2023/07/13 01:11:57;;;;;;;;;1.00;1.00;;;;;25.93;34.85;101263.81;4939817;28;45353;-44
2023/07/13 01:14:22;;;;;;;;;2.00;0.75;;;;;25.91;34.59;101264.84;4939827;28;45879;-40
2023/07/13 01:16:49;;;;;;;;;3.00;1.00;;;;;25.92;34.99;101267.41;4940255;28;45566;-43
2023/07/13 01:19:35;;;;;;;;;3.50;0.75;;;;;25.90;34.93;101271.16;4939731;28;46556;-43
2023/07/13 01:22:02;;;;;;;;;1.50;1.00;;;;;25.89;35.18;101272.09;4939814;28;45715;-40
2023/07/13 01:24:28;;;;;;;;;5.00;1.00;;;;;25.89;35.18;101274.75;4939837;28;45371;-41
2023/07/13 01:26:54;;;;;;;;;2.00;1.00;;;;;25.89;34.89;101272.94;4940077;28;45180;-39
2023/07/13 01:29:19;;;;;;;;;2.50;0.50;;;;;25.88;34.81;101276.53;4939715;28;46134;-39
2023/07/13 01:31:45;;;;;;;;;1.00;1.00;;;;;25.87;34.98;101277.50;4939510;28;45369;-41
2023/07/13 01:34:10;;;;;;;;;2.00;2.00;;;;;25.88;35.01;101276.53;4938981;28;59705;-43
2023/07/13 01:36:35;;;;;;;;;0.50;0.50;;;;;25.89;35.00;101277.41;4939239;28;45824;-41
2023/07/13 01:39:01;;;;;;;;;1.00;1.00;;;;;25.87;35.21;101282.81;4939389;28;46366;-44
2023/07/13 01:41:27;;;;;;;;;2.00;1.25;;;;;25.83;34.74;101284.00;4939394;28;45338;-41
2023/07/13 01:43:52;;;;;;;;;1.00;1.00;;;;;25.84;34.54;101285.72;4954324;28;46963;-40
2023/07/13 01:46:17;;;;;;;;;1.00;1.00;;;;;25.83;34.35;101286.66;4939982;28;45514;-42
2023/07/13 01:48:43;;;;;;;;;1.00;1.00;;;;;25.83;35.00;101278.69;4939258;28;46267;-40
2023/07/13 01:51:08;;;;;;;;;1.00;1.00;;;;;25.82;34.73;101277.00;4938929;28;58798;-39
2023/07/13 01:53:33;;;;;;;;;2.25;2.00;;;;;25.81;34.97;101283.25;4939383;28;45336;-41
2023/07/13 01:55:59;;;;;;;;;1.00;1.00;;;;;25.80;35.04;101278.06;4939492;28;45489;-41
2023/07/13 01:58:24;;;;;;;;;3.00;1.00;;;;;25.81;34.40;101293.88;4939059;28;46266;-41
2023/07/13 02:00:51;;;;;;;;;0.75;0.00;;;;;25.80;34.30;101280.72;4938885;28;61351;-39
2023/07/13 02:03:17;;;;;;;;;1.00;1.00;;;;;25.79;34.94;101290.47;4939217;28;45250;-38
2023/07/13 02:05:43;;;;;;;;;1.00;1.00;;;;;25.77;34.93;101285.28;4939430;28;45563;-42
2023/07/13 02:08:09;;;;;;;;;1.00;1.00;;;;;25.79;34.53;101290.47;4938930;28;45350;-40
2023/07/13 02:10:34;;;;;;;;;2.25;1.00;;;;;25.78;34.45;101286.13;4938283;28;58445;-40
2023/07/13 02:12:59;;;;;;;;;1.00;1.00;;;;;25.78;34.55;101288.78;4939379;28;45317;-43
2023/07/13 02:15:25;;;;;;;;;2.00;1.00;;;;;25.77;34.90;101289.72;4939207;28;45525;-38
2023/07/13 02:17:50;;;;;;;;;1.00;1.00;;;;;25.77;34.17;101284.44;4939152;28;45459;-37
2023/07/13 02:20:15;;;;;;;;;1.75;1.75;;;;;25.77;34.34;101287.94;4939028;28;45380;-42
2023/07/13 02:22:40;;;;;;;;;1.50;1.50;;;;;25.76;34.88;101290.69;4939181;28;45388;-43
2023/07/13 02:25:06;;;;;;;;;0.00;0.00;;;;;25.77;34.32;101289.72;4953505;28;51856;-44
2023/07/13 02:27:32;;;;;;;;;2.25;1.50;;;;;25.76;34.54;101288.91;4938951;28;45507;-37
2023/07/13 02:29:57;;;;;;;;;5.25;1.75;;;;;25.76;34.39;101283.59;4938679;28;45444;-39
2023/07/13 02:32:24;;;;;;;;;1.75;1.25;;;;;25.75;34.18;101289.00;4939097;28;45396;-41
2023/07/13 02:34:50;;;;;;;;;0.75;0.75;;;;;25.76;34.65;101282.72;4939440;28;45550;-37
2023/07/13 02:37:15;;;;;;;;;1.00;1.00;;;;;25.75;34.24;101275.72;4938523;28;46131;-41
2023/07/13 02:39:41;;;;;;;;;1.00;1.00;;;;;25.75;33.97;101275.72;4938064;28;61983;-44
2023/07/13 02:42:06;;;;;;;;;2.50;1.00;;;;;25.76;34.58;101270.31;4938600;28;45237;-39
2023/07/13 02:44:32;;;;;;;;;2.25;1.25;;;;;25.76;34.03;101272.97;4938803;28;45675;-38
2023/07/13 02:46:57;;;;;;;;;1.50;1.00;;;;;25.75;34.25;101281.88;4938276;28;45395;-40
2023/07/13 02:49:22;;;;;;;;;0.75;0.75;;;;;25.75;33.97;101281.03;4938778;28;45231;-46
2023/07/13 02:51:48;;;;;;;;;1.00;1.00;;;;;25.74;33.90;101282.84;4953476;28;45292;-39
2023/07/13 02:54:13;;;;;;;;;1.75;1.75;;;;;25.74;33.90;101284.66;4938771;28;45371;-37
2023/07/13 02:56:39;;;;;;;;;1.25;1.00;;;;;25.73;34.50;101286.44;4938205;28;45462;-37
2023/07/13 02:59:04;;;;;;;;;1.50;1.00;;;;;25.72;34.36;101281.25;4938410;28;45282;-39
2023/07/13 03:01:30;;;;;;;;;1.25;1.25;;;;;25.69;34.43;101287.63;4938339;28;45334;-39
2023/07/13 03:03:55;;;;;;;;;0.50;0.50;;;;;25.70;34.02;101289.31;4938909;28;45396;-39
2023/07/13 03:06:21;;;;;;;;;1.50;0.75;;;;;25.70;33.90;101285.81;4938409;28;46045;-38
2023/07/13 03:08:47;;;;;;;;;1.00;1.00;;;;;25.68;33.72;101290.38;4938064;28;45337;-42
2023/07/13 03:11:19;;;;;;;;;1.00;0.25;;;;;25.67;33.99;101299.31;4937975;28;45427;-41
2023/07/13 03:13:45;;;;;;;;;1.00;1.00;;;;;25.65;33.86;101299.44;4938326;28;45420;-42
2023/07/13 03:16:11;;;;;;;;;1.00;1.00;;;;;25.64;34.07;101292.41;4937839;28;46797;-37
2023/07/13 03:18:38;;;;;;;;;0.25;0.25;;;;;25.64;33.74;101300.38;4938018;28;45773;-39
2023/07/13 03:21:04;;;;;;;;;0.25;0.00;;;;;25.62;33.65;101297.84;4938238;28;45387;-39
2023/07/13 03:23:30;;;;;;;;;2.75;1.75;;;;;25.61;33.65;101298.78;4938459;28;45467;-41
2023/07/13 03:26:09;;;;;;;;;1.25;1.00;;;;;25.61;33.81;101301.44;4938400;28;46352;-44
2023/07/13 03:28:34;;;;;;;;;1.00;1.00;;;;;25.63;33.89;101304.00;4941470;28;45186;-40
2023/07/13 03:31:02;;;;;;;;;1.00;1.00;;;;;25.63;34.00;101310.13;4941547;28;45186;-43
2023/07/13 03:33:28;;;;;;;;;0.00;0.00;;;;;25.61;33.65;101296.16;4941985;28;45440;-40
2023/07/13 03:35:53;;;;;;;;;1.00;1.00;;;;;25.61;33.93;101312.06;4941178;28;56059;-44
2023/07/13 03:38:19;;;;;;;;;0.00;0.00;;;;;25.65;34.13;101309.19;4940681;28;58612;-37
2023/07/13 03:40:44;;;;;;;;;1.00;1.00;;;;;25.65;33.73;101309.19;4941359;28;45277;-42
2023/07/13 03:43:09;;;;;;;;;1.00;1.00;;;;;25.65;34.02;101306.53;4941405;28;45351;-43
2023/07/13 03:45:38;;;;;;;;;1.25;1.00;;;;;25.64;33.85;101316.31;4941025;28;48317;-46
2023/07/13 03:48:03;;;;;;;;;1.00;1.00;;;;;25.63;33.87;101318.09;4939970;28;45691;-38
2023/07/13 03:50:29;;;;;;;;;3.75;0.50;;;;;25.61;34.61;101312.06;4941442;28;45330;-40
2023/07/13 03:52:55;;;;;;;;;1.00;1.00;;;;;25.63;33.93;101314.59;4941771;28;45232;-49
2023/07/13 03:55:21;;;;;;;;;0.00;0.00;;;;;25.62;34.41;101313.78;4940963;28;46508;-43
2023/07/13 03:57:47;;;;;;;;;2.00;1.00;;;;;25.62;34.33;101315.56;4940818;28;45375;-41
2023/07/13 04:00:13;;;;;;;;;1.00;0.00;;;;;25.62;34.43;101318.22;4941054;28;45355;-42
2023/07/13 04:02:38;;;;;;;;;1.50;1.00;;;;;25.61;34.75;101320.03;4941155;28;45277;-41
2023/07/13 04:05:04;;;;;;;;;1.00;1.00;;;;;25.61;34.42;101321.81;4940339;28;60837;-40
2023/07/13 04:07:29;;;;;;;;;0.00;0.00;;;;;25.60;34.76;101322.78;4941267;28;45337;-41
2023/07/13 04:09:55;;;;;;;;;3.00;2.00;;;;;25.61;34.74;101322.69;4941437;28;45920;-42
2023/07/13 04:12:20;;;;;;;;;2.00;0.00;;;;;25.63;34.94;101331.38;4941040;28;45670;-40
2023/07/13 04:14:45;;;;;;;;;1.00;1.00;;;;;25.64;34.86;101326.94;4940662;28;46236;-41
2023/07/13 04:17:11;;;;;;;;;1.00;0.00;;;;;25.66;35.10;101332.13;4940549;28;45206;-39
2023/07/13 04:19:36;;;;;;;;;1.00;1.00;;;;;25.66;34.84;101329.47;4940811;28;45194;-36
2023/07/13 04:22:01;;;;;;;;;0.75;0.75;;;;;25.68;35.05;101332.88;4940437;28;50118;-42
2023/07/13 04:24:27;;;;;;;;;1.00;1.00;;;;;25.70;34.93;101338.91;4940827;28;46865;-40
2023/07/13 04:26:52;;;;;;;;;1.00;0.00;;;;;25.69;34.99;101335.41;4940128;28;52169;-43
2023/07/13 04:29:17;;;;;;;;;3.00;0.00;;;;;25.73;36.01;101336.06;4940602;28;45321;-39
2023/07/13 04:31:43;;;;;;;;;3.00;1.00;;;;;25.75;36.30;101334.13;4940578;28;45356;-39
2023/07/13 04:34:08;;;;;;;;;3.00;1.00;;;;;25.77;37.73;101343.69;4940498;28;45408;-43
2023/07/13 04:36:37;;;;;;;;;2.25;2.00;;;;;25.80;36.75;101353.25;4940288;28;45310;-39
2023/07/13 04:39:02;;;;;;;;;2.00;1.00;;;;;25.81;37.29;101354.94;4939455;28;45340;-40
2023/07/13 04:41:28;;;;;;;;;3.50;1.25;;;;;25.84;38.16;101349.44;4940800;28;45352;-38
2023/07/13 04:43:53;;;;;;;;;3.00;1.75;;;;;25.84;38.37;101344.13;4940112;28;46909;-40
2023/07/13 04:46:19;;;;;;;;;3.00;1.75;;;;;25.83;37.44;101347.72;4940181;28;45357;-38
2023/07/13 04:48:45;;;;;;;;;1.00;1.00;;;;;25.83;37.85;101355.69;4940386;28;45500;-38
2023/07/13 04:51:10;;;;;;;;;1.00;0.00;;;;;25.83;38.13;101353.03;4940678;28;45428;-39
2023/07/13 04:53:36;;;;;;;;;2.00;2.00;;;;;25.82;37.95;101354.00;4940033;28;46262;-37
2023/07/13 04:56:02;;;;;;;;;2.50;0.25;;;;;25.81;38.02;101357.59;4940452;28;45319;-37
2023/07/13 04:58:28;;;;;;;;;0.50;0.50;;;;;25.82;37.76;101358.44;4940654;28;45742;-36
2023/07/13 05:01:00;;;;;;;;;1.00;1.00;;;;;25.81;37.79;101354.94;4955273;28;45269;-38
2023/07/13 05:03:25;;;;;;;;;1.00;1.00;;;;;25.82;37.78;101351.34;4940249;28;46237;-37
2023/07/13 05:06:04;;;;;;;;;4.50;1.25;;;;;25.81;37.03;101349.66;4939248;28;62915;-40
2023/07/13 05:08:30;;;;;;;;;1.00;1.00;;;;;25.78;36.75;101349.84;4940338;28;45356;-38
2023/07/13 05:10:55;;;;;;;;;2.00;1.00;;;;;25.74;36.63;101348.38;4939862;28;45546;-38
2023/07/13 05:13:21;;;;;;;;;2.00;2.00;;;;;25.67;36.72;101352.41;4939744;28;45923;-39
2023/07/13 05:15:55;;;;;;;;;1.50;1.50;;;;;25.61;36.58;101348.38;4939702;28;45711;-39
2023/07/13 05:18:21;;;;;;;;;2.75;2.75;;;;;25.54;36.59;101347.94;4939865;28;45436;-39
2023/07/13 05:20:46;;;;;;;;;2.00;1.00;;;;;25.49;36.76;101344.75;4940096;28;45549;-39
2023/07/13 05:23:11;;;;;;;;;1.25;1.00;;;;;25.45;36.89;101353.88;4939387;28;46336;-42
2023/07/13 05:25:37;;;;;;;;;2.00;2.00;;;;;25.43;36.63;101358.44;4939145;28;56506;-40
2023/07/13 05:28:02;;;;;;;;;3.75;2.25;;;;;25.40;36.61;101366.59;4939607;28;51824;-42
2023/07/13 05:30:27;;;;;;;;;2.00;1.25;;;;;25.37;36.65;101369.44;4938411;28;45489;-41
2023/07/13 05:32:52;;;;;;;;;1.00;1.00;;;;;25.34;37.10;101372.31;4954272;28;47425;-38
2023/07/13 05:35:18;;;;;;;;;1.75;0.50;;;;;25.29;37.31;101370.81;4939387;28;45320;-40
2023/07/13 05:37:43;;;;;;;;;1.75;1.75;;;;;25.24;37.24;101372.94;4939211;28;45385;-39
2023/07/13 05:40:09;;;;;;;;;3.75;1.00;;;;;25.16;37.26;101375.25;4954602;28;45612;-39
2023/07/13 05:42:34;;;;;;;;;1.75;1.00;;;;;25.09;37.30;101374.81;4939546;28;45891;-41
2023/07/13 05:44:59;;;;;;;;;2.00;1.75;;;;;25.02;37.40;101373.53;4939300;28;45354;-38
2023/07/13 05:47:25;;;;;;;;;2.00;2.00;;;;;24.98;37.69;101377.31;4939307;28;45556;-39
2023/07/13 05:49:50;;;;;;;;;2.75;1.75;;;;;24.91;37.70;101387.47;4939145;28;45558;-37
2023/07/13 05:52:15;;;;;;;;;3.00;1.00;;;;;24.89;37.89;101388.53;4938719;28;53985;-38
2023/07/13 05:54:41;;;;;;;;;2.50;1.00;;;;;24.87;37.65;101391.28;4938796;28;49963;-37
2023/07/13 05:57:06;;;;;;;;;1.00;1.00;;;;;24.85;37.91;101387.91;4939320;28;45305;-38
2023/07/13 05:59:31;;;;;;;;;1.50;1.50;;;;;24.82;37.36;101382.78;4939805;28;45646;-40
2023/07/13 06:01:56;;;;;;;;;1.50;1.00;;;;;24.80;37.86;101390.84;4938411;28;59221;-41
2023/07/13 06:04:22;;;;;;;;;1.00;1.00;;;;;24.76;38.00;101385.81;4953247;28;59494;-39
2023/07/13 06:06:47;;;;;;;;;1.00;1.00;;;;;24.72;37.72;101384.34;4938940;28;45283;-39
2023/07/13 06:09:13;;;;;;;;;2.00;1.75;;;;;24.68;37.22;101388.94;4939076;28;45622;-39
2023/07/13 06:11:38;;;;;;;;;2.33;1.33;;;;;24.66;37.47;101401.44;4937860;28;65071;-38
2023/07/13 06:14:03;;;;;;;;;2.75;1.00;;;;;24.62;37.50;101399.94;4938999;28;45272;-45
2023/07/13 06:16:29;;;;;;;;;2.00;1.00;;;;;24.57;38.15;101396.75;4938606;28;45405;-39
2023/07/13 06:18:54;;;;;;;;;1.00;1.00;;;;;24.51;38.31;101400.63;4938938;28;45252;-40
2023/07/13 06:21:21;;;;;;;;;2.00;2.00;;;;;24.48;37.73;101401.66;4938409;28;45228;-37
2023/07/13 06:23:48;;;;;;;;;1.00;1.00;;;;;24.44;38.50;101404.59;4938300;28;45902;-37
2023/07/13 06:26:14;;;;;;;;;3.25;1.00;;;;;24.41;38.48;101415.41;4938509;28;45427;-38
2023/07/13 06:28:42;;;;;;;;;2.00;1.00;;;;;24.36;38.39;101407.75;4937301;28;45616;-40
2023/07/13 06:31:09;;;;;;;;;1.25;1.25;;;;;24.34;38.49;101407.84;4938470;28;45385;-39
2023/07/13 06:33:35;;;;;;;;;2.25;1.75;;;;;24.32;38.90;101420.31;4938432;28;45582;-39
2023/07/13 06:36:02;;;;;;;;;1.25;1.25;;;;;24.31;38.42;101415.13;4938201;28;45232;-37
2023/07/13 06:38:28;;;;;;;;;1.75;1.75;;;;;24.28;38.33;101416.19;4938443;28;45386;-37
2023/07/13 06:40:53;;;;;;;;;1.50;1.50;;;;;24.27;39.13;101414.47;4938164;28;45313;-40
2023/07/13 06:43:20;;;;;;;;;3.75;1.75;;;;;24.25;38.59;101416.34;4938133;28;45751;-42
2023/07/13 06:45:48;;;;;;;;;2.50;2.00;;;;;24.21;39.03;101413.06;4938081;28;45325;-38
2023/07/13 06:48:14;;;;;;;;;1.00;1.00;;;;;24.19;39.34;101422.06;4938268;28;45372;-40
2023/07/13 06:50:42;;;;;;;;;2.00;1.50;;;;;24.17;39.10;101418.66;4937973;28;47510;-39
2023/07/13 06:53:07;;;;;;;;;4.50;2.25;;;;;24.14;39.11;101408.22;4938001;28;45721;-38
2023/07/13 06:55:33;;;;;;;;;2.25;2.00;;;;;24.11;39.02;101414.56;4938017;28;45329;-39
2023/07/13 06:57:58;;;;;;;;;1.25;1.00;;;;;24.11;39.49;101422.50;4944818;28;45659;-38
2023/07/13 07:00:24;;;;;;;;;3.25;1.25;;;;;24.09;39.20;101427.88;4956326;28;46177;-39
2023/07/13 07:02:49;;;;;;;;;2.00;1.25;;;;;24.07;39.85;101424.50;4955592;28;45475;-39
2023/07/13 07:05:14;;;;;;;;;3.75;1.25;;;;;24.07;39.91;101429.81;4956469;28;45419;-41
2023/07/13 07:07:40;;;;;;;;;1.00;1.00;;;;;24.06;39.96;101428.09;4957104;28;45988;-39
2023/07/13 07:10:05;;;;;;;;;2.00;2.00;;;;;24.09;40.15;101421.75;4956943;28;45403;-40
2023/07/13 07:12:31;;;;;;;;;1.25;1.00;;;;;24.08;40.22;101436.81;4957125;28;45470;-38
2023/07/13 07:14:57;;;;;;;;;3.75;1.75;;;;;24.06;39.99;101428.09;4957339;28;45264;-41
2023/07/13 07:17:23;;;;;;;;;2.25;2.00;;;;;24.04;40.44;101429.97;4957206;28;45459;-41
2023/07/13 07:19:48;;;;;;;;;1.75;1.00;;;;;24.02;40.33;101436.31;4956739;28;45476;-40
2023/07/13 07:22:13;;;;;;;;;4.25;1.75;;;;;24.03;40.23;101430.09;4956769;28;45461;-40
2023/07/13 07:24:39;;;;;;;;;2.25;2.00;;;;;24.02;40.74;101429.22;4957305;28;45368;-38
2023/07/13 07:27:04;;;;;;;;;2.00;1.00;;;;;24.04;40.58;101429.13;4956825;28;46917;-39
2023/07/13 07:29:30;;;;;;;;;3.75;1.50;;;;;24.05;40.90;101433.47;4956799;28;46328;-38
2023/07/13 07:31:55;;;;;;;;;2.50;2.00;;;;;24.08;40.84;101444.75;4956865;28;45427;-38
2023/07/13 07:34:20;;;;;;;;;4.00;2.00;;;;;24.09;40.85;101443.78;4957020;28;45576;-39
2023/07/13 07:36:46;;;;;;;;;3.00;2.00;;;;;24.09;40.40;101441.13;4957064;28;45608;-39
2023/07/13 07:39:11;;;;;;;;;4.00;2.25;;;;;24.06;40.61;101437.81;4957114;28;46174;-38
2023/07/13 07:41:37;;;;;;;;;4.00;2.50;;;;;24.07;40.59;101442.19;4956873;28;45394;-38
2023/07/13 07:44:03;;;;;;;;;4.25;2.75;;;;;24.07;41.05;101445.69;4956947;28;45301;-38
2023/07/13 07:46:29;;;;;;;;;2.25;1.00;;;;;24.05;40.60;101444.94;4957139;28;45325;-39
2023/07/13 07:48:55;;;;;;;;;3.75;2.75;;;;;24.02;40.83;101445.09;4956568;28;45994;-38
2023/07/13 07:51:21;;;;;;;;;3.00;1.50;;;;;23.98;41.19;101443.56;4956593;28;45348;-38
2023/07/13 07:53:47;;;;;;;;;5.00;2.00;;;;;23.99;41.19;101452.38;4956911;28;45359;-38
2023/07/13 07:56:13;;;;;;;;;1.25;1.25;;;;;23.96;41.33;101448.13;4957244;28;45326;-38
2023/07/13 07:58:38;;;;;;;;;3.75;2.00;;;;;23.96;41.30;101450.78;4956146;28;45899;-40
2023/07/13 08:01:06;;;;;;;;;3.00;2.75;;;;;23.90;41.41;101451.97;4956648;28;45325;-41
2023/07/13 08:03:32;;;;;;;;;3.00;1.50;;;;;23.93;41.71;101454.41;4956792;28;45384;-39
2023/07/13 08:05:58;;;;;;;;;0.75;0.00;;;;;23.93;41.53;101458.88;4956796;28;45513;-40
2023/07/13 08:08:24;;;;;;;;;3.75;2.00;;;;;23.91;41.72;101461.63;4956283;28;46281;-41
2023/07/13 08:10:49;;;;;;;;;3.50;2.75;;;;;23.91;41.51;101460.75;4956039;28;45491;-39
2023/07/13 08:13:14;;;;;;;;;3.00;2.00;;;;;23.89;41.42;101458.22;4958050;28;45514;-41
2023/07/13 08:15:40;;;;;;;;;2.00;2.00;;;;;23.90;41.94;101451.09;4959157;28;45458;-39
2023/07/13 08:18:06;;;;;;;;;3.75;3.00;;;;;23.96;42.02;101464.03;4959545;28;46104;-39
2023/07/13 08:20:31;;;;;;;;;2.00;2.00;;;;;23.94;41.90;101450.81;4959944;28;45274;-39
2023/07/13 08:22:56;;;;;;;;;2.25;2.25;;;;;23.98;41.63;101455.97;4959578;28;45303;-39
2023/07/13 08:25:22;;;;;;;;;2.50;2.50;;;;;24.00;42.00;101460.22;4959739;28;45372;-47
2023/07/13 08:27:48;;;;;;;;;3.50;2.25;;;;;24.03;41.52;101454.75;4958955;28;45423;-40
2023/07/13 08:30:13;;;;;;;;;3.00;3.00;;;;;24.05;41.60;101467.88;4959780;28;45271;-38
2023/07/13 08:32:39;;;;;;;;;3.50;3.00;;;;;24.05;41.85;101454.66;4959646;28;45305;-38
2023/07/13 15:58:43;;;;;;;;;1.00;1.00;;;;;25.72;33.39;101364.41;4924940;28;45474;-53
2023/07/13 16:01:12;;;;;;;;;1.25;1.25;;;;;25.75;33.65;101376.59;4926365;28;45490;-60
2023/07/13 16:03:37;;;;;;;;;1.50;1.00;;;;;25.72;33.78;101360.91;4925019;28;45496;-41
2023/07/13 16:06:02;;;;;;;;;2.75;2.00;;;;;25.75;34.03;101363.31;4924952;28;45335;-50
2023/07/13 16:08:31;;;;;;;;;1.50;1.50;;;;;25.73;34.13;101359.97;4925217;28;45324;-45
2023/07/13 16:10:59;;;;;;;;;0.50;0.50;;;;;25.74;33.87;101359.84;4924411;28;45416;-60
2023/07/13 16:13:25;;;;;;;;;1.00;1.00;;;;;25.76;33.78;101365.91;4926049;28;45356;-66
2023/07/13 16:15:51;;;;;;;;;1.00;1.00;;;;;25.76;33.87;101367.69;4928112;28;47117;-61
2023/07/13 16:18:16;;;;;;;;;1.00;1.00;;;;;25.73;33.52;101359.97;4930857;28;45372;-64
2023/07/13 16:20:43;;;;;;;;;2.50;1.00;;;;;25.73;34.03;101365.25;4929756;28;45724;-67
2023/07/13 16:23:11;;;;;;;;;1.00;1.00;;;;;25.75;33.43;101372.16;4932123;28;45505;-64
2023/07/13 16:25:37;;;;;;;;;2.00;2.00;;;;;25.73;33.88;101368.75;4932901;28;45433;-66
2023/07/13 16:28:02;;;;;;;;;1.00;1.00;;;;;25.74;34.07;101362.50;4932413;28;45283;-68
2023/07/13 16:30:31;;;;;;;;;3.75;1.25;;;;;25.75;34.18;101360.66;4938450;28;44946;-59
2023/07/13 16:33:02;;;;;;;;;1.00;1.00;;;;;25.75;34.09;101364.19;4940954;28;45561;-66
2023/07/13 16:35:29;;;;;;;;;3.00;1.00;;;;;25.77;34.07;101367.59;4937046;28;46351;-66
2023/07/13 16:37:55;;;;;;;;;2.25;1.00;;;;;25.77;33.62;101364.06;4935857;28;45063;-65
2023/07/13 16:40:26;;;;;;;;;2.00;1.00;;;;;25.78;34.12;101365.78;4938656;28;44750;-62
2023/07/13 16:42:53;;;;;;;;;2.00;0.50;;;;;25.77;33.51;101364.06;4937903;28;44790;-63
2023/07/13 16:45:23;;;;;;;;;2.00;2.00;;;;;25.76;33.53;101362.38;4935527;28;45561;-66
2023/07/13 16:47:50;;;;;;;;;3.25;2.00;;;;;25.77;34.14;101366.72;4936186;28;45236;-62
2023/07/13 16:50:19;;;;;;;;;2.00;2.00;;;;;25.76;33.78;101357.94;4932747;28;45301;-62
2023/07/13 16:52:46;;;;;;;;;2.00;1.00;;;;;25.75;33.68;101350.91;4911428;28;45329;-66
2023/07/13 16:55:14;;;;;;;;;1.50;1.25;;;;;25.77;34.24;101353.47;4929267;28;45409;-62
2023/07/13 16:57:43;;;;;;;;;3.00;1.00;;;;;25.78;34.24;101349.84;4927085;28;45639;-63
2023/07/13 17:00:20;;;;;;;;;3.00;1.00;;;;;25.77;33.95;101348.16;4924529;28;45378;-65
2023/07/13 17:02:46;;;;;;;;;2.00;2.00;;;;;25.75;34.41;101347.41;4924840;28;45390;-63
2023/07/13 17:05:14;;;;;;;;;3.00;1.75;;;;;25.74;33.63;101348.38;4904756;28;46475;-66
2023/07/13 17:07:39;;;;;;;;;2.75;1.00;;;;;25.77;33.89;101349.00;4923503;28;45646;-67
2023/07/13 17:10:16;;;;;;;;;1.00;1.00;;;;;25.79;34.25;101359.50;4921966;28;45380;-67
2023/07/13 17:12:41;;;;;;;;;1.25;1.25;;;;;25.76;33.87;101357.06;4908282;28;45572;-65
2023/07/13 17:15:09;;;;;;;;;1.00;1.00;;;;;25.79;34.29;101359.50;4930467;28;55900;-62
2023/07/13 17:17:42;;;;;;;;;2.00;2.00;;;;;25.79;33.88;101370.13;4935114;28;45413;-57
2023/07/13 17:20:21;;;;;;;;;2.00;2.00;;;;;25.79;34.14;101362.16;4939284;28;44769;-57
2023/07/13 17:22:50;;;;;;;;;3.25;2.25;;;;;25.79;34.01;101367.47;4937708;28;45296;-65
2023/07/13 17:25:17;;;;;;;;;2.75;1.50;;;;;25.79;34.19;101356.84;4935924;28;45245;-59
2023/07/13 17:27:42;;;;;;;;;3.25;1.00;;;;;25.81;33.92;101359.41;4929050;28;45359;-51
2023/07/13 17:30:17;;;;;;;;;2.50;1.00;;;;;25.80;34.12;101353.25;4922568;28;45362;-60
2023/07/13 17:32:45;;;;;;;;;1.00;1.00;;;;;25.81;33.44;101356.75;4926024;28;45534;-55
2023/07/13 17:35:30;;;;;;;;;1.00;1.00;;;;;25.82;34.13;101351.34;4924751;28;46471;-62
2023/07/13 17:38:01;;;;;;;;;1.75;1.75;;;;;25.82;34.17;101361.09;4920969;28;45805;-64
2023/07/13 17:40:27;;;;;;;;;2.00;2.00;;;;;25.81;34.13;101354.94;4923960;28;45501;-59
2023/07/13 17:42:54;;;;;;;;;4.00;1.75;;;;;25.83;34.33;101358.34;4921492;28;45508;-58
2023/07/13 17:45:31;;;;;;;;;1.50;1.50;;;;;25.81;34.46;101349.66;4920621;28;46250;-53
2023/07/13 17:47:59;;;;;;;;;2.25;1.25;;;;;25.82;34.25;101355.78;4927477;28;45392;-58
2023/07/13 17:50:35;;;;;;;;;3.00;2.00;;;;;25.81;33.80;101354.94;4929760;28;45261;-56
2023/07/13 17:53:13;;;;;;;;;1.25;1.25;;;;;25.82;33.88;101355.78;4922714;28;45578;-66
2023/07/13 17:55:38;;;;;;;;;2.25;2.00;;;;;25.81;34.32;101341.69;4927818;28;46167;-61
2023/07/13 17:58:04;;;;;;;;;2.75;1.50;;;;;25.81;33.93;101348.78;4928687;28;45264;-56
2023/07/13 18:00:39;;;;;;;;;2.50;1.00;;;;;25.80;34.28;101345.28;4928147;28;45249;-61
2023/07/13 18:03:13;;;;;;;;;3.50;2.50;;;;;25.81;34.36;101340.81;4923300;28;45448;-61
2023/07/13 18:05:39;;;;;;;;;1.50;1.50;;;;;25.82;34.28;101339.84;4921376;28;46399;-63
2023/07/13 18:08:06;;;;;;;;;1.00;1.00;;;;;25.81;34.42;101344.31;4903070;28;45423;-58
2023/07/13 18:10:34;;;;;;;;;2.75;1.00;;;;;25.80;34.20;101334.66;4923351;28;45498;-62
2023/07/13 18:13:00;;;;;;;;;2.75;1.25;;;;;25.79;34.81;101340.94;4924400;28;45576;-65
2023/07/13 18:15:29;;;;;;;;;3.50;2.00;;;;;25.82;34.19;101351.34;4926064;28;47090;-59
2023/07/13 18:17:55;;;;;;;;;5.00;3.75;;;;;25.82;34.93;101338.06;4923012;28;45790;-61
2023/07/13 18:20:21;;;;;;;;;5.50;4.00;;;;;25.83;34.68;101341.56;4902982;28;45397;-58
2023/07/13 18:22:52;;;;;;;;;6.00;5.00;;;;;25.82;34.44;101345.16;4919920;28;45331;-59
2023/07/13 18:25:21;;;;;;;;;8.00;5.00;;;;;25.81;34.73;101333.72;4919501;28;45973;-59
2023/07/13 18:27:47;;;;;;;;;7.50;7.25;;;;;25.85;34.60;101343.13;4921674;28;45657;-59
2023/07/13 18:30:16;;;;;;;;;8.75;8.00;;;;;25.85;34.71;101340.47;4920518;28;45340;-57
2023/07/13 18:32:47;;;;;;;;;8.25;6.00;;;;;25.85;34.45;101339.66;4920110;28;45430;-59
2023/07/13 18:35:21;;;;;;;;;10.25;8.50;;;;;25.86;34.92;101333.38;4919229;28;45367;-60
2023/07/13 18:37:48;;;;;;;;;9.75;9.75;;;;;25.85;35.27;101331.69;4921047;28;45277;-61
2023/07/13 18:40:18;;;;;;;;;8.25;7.25;;;;;25.87;35.50;101333.25;4919503;28;45221;-62
2023/07/13 18:42:46;;;;;;;;;9.50;7.75;;;;;25.87;34.95;101338.56;4920757;28;45530;-60
2023/07/13 18:45:14;;;;;;;;;6.75;6.00;;;;;25.86;34.92;101336.03;4924043;28;46524;-64